Time;durP1;ratioP1;P1;durP2;ratioP2;P2;SDS_P1;SDS_P2;PMS_P1;PMS_P2;Temp;Humidity;BMP_temperature;BMP_pressure;BME280_temperature;BME280_humidity;BME280_pressure;Samples;Min_cycle;Max_cycle;Signal;HPM_P1;HPM_P2
2022/11/15 00:00:07;;;;;;;0.90;0.50;;;11.60;99.90;;;;;;5082426;28;20020;-87
2022/11/15 00:02:33;;;;;;;2.72;0.90;;;11.60;99.90;;;;;;5100062;28;20508;-87
2022/11/15 00:04:58;;;;;;;1.23;0.70;;;11.60;99.90;;;;;;5092087;28;20032;-87
2022/11/15 00:07:24;;;;;;;2.05;0.90;;;11.60;99.90;;;;;;5104923;28;20016;-85
2022/11/15 00:09:50;;;;;;;1.23;0.70;;;11.60;99.90;;;;;;5085629;28;20443;-86
2022/11/15 00:12:15;;;;;;;3.53;1.00;;;11.60;99.90;;;;;;5099102;28;20565;-88
2022/11/15 00:14:41;;;;;;;1.73;0.73;;;11.60;99.90;;;;;;5085655;28;20028;-86
2022/11/15 00:17:07;;;;;;;5.50;1.05;;;11.70;99.90;;;;;;5086558;28;20449;-87
2022/11/15 00:19:33;;;;;;;3.45;0.70;;;11.70;99.90;;;;;;5107686;28;20531;-87
2022/11/15 00:21:58;;;;;;;3.42;0.70;;;11.70;99.90;;;;;;5090326;28;20020;-86
2022/11/15 00:24:24;;;;;;;3.88;0.95;;;11.70;99.90;;;;;;5088440;28;20171;-87
2022/11/15 00:26:49;;;;;;;2.72;0.88;;;11.70;99.90;;;;;;5098796;28;20024;-87
2022/11/15 00:29:15;;;;;;;1.05;0.50;;;11.80;99.90;;;;;;5076926;28;20032;-89
2022/11/15 00:31:41;;;;;;;1.30;0.63;;;11.80;99.90;;;;;;5100512;28;20081;-86
2022/11/15 00:34:06;;;;;;;0.82;0.43;;;11.80;99.90;;;;;;5109993;28;20069;-89
2022/11/15 00:36:35;;;;;;;1.10;0.60;;;11.80;99.90;;;;;;5097501;28;20111;-86
2022/11/15 00:39:02;;;;;;;2.22;0.70;;;11.80;99.90;;;;;;5091869;28;20410;-86
2022/11/15 00:41:28;;;;;;;2.10;0.90;;;11.80;99.90;;;;;;5100306;28;20059;-88
2022/11/15 00:43:54;;;;;;;2.58;0.88;;;11.90;99.90;;;;;;5081985;28;20511;-87
2022/11/15 00:46:19;;;;;;;2.33;0.90;;;11.80;99.90;;;;;;5085859;28;20020;-81
2022/11/15 00:48:45;;;;;;;3.08;0.75;;;11.90;99.90;;;;;;5109542;28;20052;-82
2022/11/15 00:51:11;;;;;;;2.55;0.73;;;11.90;99.90;;;;;;5097793;28;20031;-80
2022/11/15 00:53:36;;;;;;;4.40;1.25;;;11.90;99.90;;;;;;5091774;28;20558;-80
2022/11/15 00:56:02;;;;;;;2.83;0.98;;;11.90;99.90;;;;;;5102349;28;20023;-81
2022/11/15 00:58:28;;;;;;;2.40;0.85;;;12.00;99.90;;;;;;5102383;28;20115;-82
2022/11/15 01:00:54;;;;;;;2.30;0.80;;;11.90;99.90;;;;;;5120413;28;20080;-82
2022/11/15 01:03:20;;;;;;;2.40;0.70;;;12.00;99.90;;;;;;5102331;28;20047;-83
2022/11/15 01:05:45;;;;;;;3.47;0.70;;;12.00;99.90;;;;;;5102012;28;20035;-82
2022/11/15 01:08:15;;;;;;;1.92;0.73;;;12.10;99.90;;;;;;5109208;28;20028;-83
2022/11/15 01:10:41;;;;;;;2.17;0.63;;;12.10;99.90;;;;;;5095225;28;20092;-82
2022/11/15 01:13:07;;;;;;;2.10;0.60;;;12.10;99.90;;;;;;5092595;28;20053;-82
2022/11/15 01:15:33;;;;;;;2.20;0.77;;;12.10;99.90;;;;;;5088238;28;20034;-82
2022/11/15 01:17:58;;;;;;;2.55;0.80;;;12.20;99.90;;;;;;5086344;28;20020;-88
2022/11/15 01:20:24;;;;;;;2.95;0.70;;;12.20;99.90;;;;;;5095215;28;20035;-86
2022/11/15 01:22:50;;;;;;;1.55;0.50;;;12.20;99.90;;;;;;5090721;28;20024;-85
2022/11/15 01:44:42;;;;;;;1.95;0.63;;;12.30;99.90;;;;;;5062365;28;20038;-88
2022/11/15 01:47:27;;;;;;;2.22;0.70;;;12.40;99.90;;;;;;5088976;28;20070;-87
2022/11/15 01:50:07;;;;;;;1.70;0.88;;;12.40;99.90;;;;;;5109862;28;20121;-88
2022/11/15 01:52:34;;;;;;;1.50;0.47;;;12.40;99.90;;;;;;5081175;28;20028;-88
2022/11/15 01:55:18;;;;;;;2.67;0.60;;;12.40;99.90;;;;;;5094596;28;20724;-89
2022/11/15 01:57:49;;;;;;;2.53;0.80;;;12.40;99.90;;;;;;5080666;28;20059;-88
2022/11/15 02:00:15;;;;;;;1.65;0.57;;;12.50;99.90;;;;;;5083143;28;20020;-87
2022/11/15 02:02:41;;;;;;;1.48;0.45;;;12.50;99.90;;;;;;5081089;28;20024;-86
2022/11/15 02:05:07;;;;;;;4.55;0.85;;;12.50;99.90;;;;;;5085145;28;20075;-85
2022/11/15 02:07:35;;;;;;;5.00;0.80;;;12.50;99.90;;;;;;5088312;28;20024;-86
2022/11/15 02:10:09;;;;;;;1.33;0.50;;;12.50;99.90;;;;;;5084854;28;20036;-86
2022/11/15 02:12:36;;;;;;;2.45;0.63;;;12.50;99.90;;;;;;5073718;28;20563;-86
2022/11/15 02:15:03;;;;;;;5.68;0.73;;;12.60;99.90;;;;;;5085803;28;20023;-86
2022/11/15 02:17:55;;;;;;;1.30;0.40;;;12.60;99.90;;;;;;5091138;28;20043;-86
2022/11/15 02:20:23;;;;;;;2.95;0.75;;;12.60;99.90;;;;;;5070707;28;20024;-86
2022/11/15 02:23:15;;;;;;;2.70;0.65;;;12.60;99.90;;;;;;5085476;28;20024;-86
2022/11/15 02:25:59;;;;;;;1.85;0.43;;;12.60;99.90;;;;;;5079891;28;20039;-86
2022/11/15 02:28:46;;;;;;;3.92;0.85;;;12.60;99.90;;;;;;5080045;28;20410;-86
2022/11/15 02:31:34;;;;;;;1.85;0.40;;;12.70;99.90;;;;;;5079220;28;20035;-85
2022/11/15 02:34:15;;;;;;;1.73;0.60;;;12.60;99.90;;;;;;5079320;28;20027;-85
2022/11/15 02:36:56;;;;;;;3.05;0.50;;;12.70;99.90;;;;;;5103664;28;20051;-85
2022/11/15 02:39:46;;;;;;;3.92;0.77;;;12.70;99.90;;;;;;5075341;28;20051;-85
2022/11/15 02:45:13;;;;;;;1.70;0.50;;;12.70;99.90;;;;;;5106810;28;20076;-85
2022/11/15 02:47:45;;;;;;;3.67;0.77;;;12.60;99.90;;;;;;5080005;28;20039;-90
2022/11/15 02:50:14;;;;;;;3.40;0.50;;;12.70;99.90;;;;;;5069733;28;20113;-89
2022/11/15 02:52:40;;;;;;;2.38;0.70;;;12.60;99.90;;;;;;5085835;28;20031;-86
2022/11/15 02:55:31;;;;;;;2.40;0.57;;;12.60;99.90;;;;;;5082681;28;20024;-87
2022/11/15 02:58:02;;;;;;;2.67;0.60;;;12.60;99.90;;;;;;5096468;28;20028;-87
2022/11/15 03:00:34;;;;;;;3.78;0.65;;;12.60;99.90;;;;;;5079697;28;20024;-84
2022/11/15 03:03:44;;;;;;;2.38;0.77;;;12.70;99.90;;;;;;5080036;28;20024;-84
2022/11/15 03:06:22;;;;;;;1.98;0.40;;;12.60;99.90;;;;;;5065695;28;20075;-84
2022/11/15 03:08:57;;;;;;;3.75;0.70;;;12.60;99.90;;;;;;5078202;28;20028;-87
2022/11/15 03:11:23;;;;;;;1.77;0.50;;;12.60;99.90;;;;;;5108503;28;20028;-86
2022/11/15 03:14:07;;;;;;;2.20;0.40;;;12.60;99.90;;;;;;5084111;28;20051;-87
2022/11/15 03:16:45;;;;;;;2.72;0.60;;;12.60;99.90;;;;;;5079032;28;20074;-87
2022/11/15 03:19:28;;;;;;;1.92;0.60;;;12.60;99.90;;;;;;5079447;28;20476;-85
2022/11/15 03:21:56;;;;;;;1.63;0.40;;;12.60;99.90;;;;;;5103146;28;20023;-85
2022/11/15 03:24:24;;;;;;;1.60;0.35;;;12.60;99.90;;;;;;5097293;28;20031;-85
2022/11/15 03:26:53;;;;;;;1.88;0.63;;;12.60;99.90;;;;;;5078810;28;20031;-85
2022/11/15 03:29:31;;;;;;;4.20;0.68;;;12.60;99.90;;;;;;5102472;28;20528;-85
2022/11/15 03:32:12;;;;;;;4.00;0.60;;;12.60;99.90;;;;;;5085062;28;20027;-85
2022/11/15 03:34:47;;;;;;;2.17;0.60;;;12.60;99.90;;;;;;5078792;28;20028;-85
2022/11/15 03:37:15;;;;;;;2.72;0.60;;;12.60;99.90;;;;;;5079336;28;20084;-85
2022/11/15 03:39:42;;;;;;;4.70;0.77;;;12.60;99.90;;;;;;5074502;28;20054;-86
2022/11/15 03:42:14;;;;;;;3.83;0.60;;;12.60;99.90;;;;;;5087137;28;20024;-90
2022/11/15 03:44:58;;;;;;;5.55;0.80;;;12.60;99.90;;;;;;5074765;28;20051;-89
2022/11/15 03:47:36;;;;;;;3.97;0.80;;;12.60;99.90;;;;;;5065264;28;20435;-89
2022/11/15 03:50:13;;;;;;;2.97;0.60;;;12.60;99.90;;;;;;5079588;28;20044;-89
2022/11/15 03:52:39;;;;;;;1.85;0.38;;;12.60;99.90;;;;;;5097981;28;20059;-88
2022/11/15 03:55:08;;;;;;;3.33;0.70;;;12.60;99.90;;;;;;5089616;28;20082;-90
2022/11/15 03:57:33;;;;;;;3.40;0.55;;;12.60;99.90;;;;;;5085348;28;20024;-89
2022/11/15 03:59:59;;;;;;;2.28;0.60;;;12.60;99.90;;;;;;5086540;28;20027;-89
2022/11/15 04:02:25;;;;;;;3.95;0.50;;;12.60;99.90;;;;;;5079228;28;20043;-90
2022/11/15 04:04:51;;;;;;;4.75;0.60;;;12.60;99.90;;;;;;5084333;28;20031;-90
2022/11/15 04:07:16;;;;;;;4.00;0.50;;;12.60;99.90;;;;;;5095326;28;20036;-89
2022/11/15 04:12:32;;;;;;;1.02;0.30;;;12.60;99.90;;;;;;5097749;28;20042;-89
2022/11/15 04:15:08;;;;;;;3.85;0.50;;;12.60;99.90;;;;;;5086314;28;20020;-90
2022/11/15 04:17:46;;;;;;;4.45;0.68;;;12.60;99.90;;;;;;5093523;28;20032;-90
2022/11/15 04:25:53;;;;;;;3.33;0.70;;;12.60;99.90;;;;;;5110649;28;20494;-86
2022/11/15 04:28:19;;;;;;;2.85;0.70;;;12.60;99.90;;;;;;5079217;28;20439;-83
2022/11/15 04:30:45;;;;;;;4.18;0.60;;;12.60;99.90;;;;;;5078547;28;20077;-84
2022/11/15 04:33:11;;;;;;;4.82;0.80;;;12.60;99.90;;;;;;5078503;28;20115;-83
2022/11/15 04:35:36;;;;;;;1.67;0.47;;;12.60;99.90;;;;;;5078206;28;20432;-86
2022/11/15 04:38:04;;;;;;;1.73;0.60;;;12.60;99.90;;;;;;5104893;28;20036;-85
2022/11/15 04:40:30;;;;;;;6.38;0.77;;;12.70;99.90;;;;;;5109026;28;20059;-85
2022/11/15 04:42:56;;;;;;;5.55;0.90;;;12.60;99.90;;;;;;5115366;28;20027;-83
2022/11/15 04:45:22;;;;;;;1.17;0.50;;;12.60;99.90;;;;;;5082258;28;20036;-86
2022/11/15 04:47:47;;;;;;;3.40;0.55;;;12.60;99.90;;;;;;5104995;28;20039;-87
2022/11/15 04:50:15;;;;;;;2.53;0.75;;;12.60;99.90;;;;;;5100447;28;20480;-87
2022/11/15 04:52:50;;;;;;;5.80;0.88;;;12.60;99.90;;;;;;5081883;28;20036;-87
2022/11/15 04:55:16;;;;;;;3.10;0.80;;;12.60;99.90;;;;;;5083028;28;20023;-86
2022/11/15 04:57:42;;;;;;;1.98;0.50;;;12.60;99.90;;;;;;5095776;28;20032;-86
2022/11/15 05:00:10;;;;;;;2.63;0.50;;;12.50;99.90;;;;;;5092610;28;20468;-87
2022/11/15 05:05:30;;;;;;;2.58;0.50;;;12.50;99.90;;;;;;5019469;28;20471;-88
2022/11/15 05:07:56;;;;;;;3.60;0.60;;;12.50;99.90;;;;;;5094221;28;20035;-91
2022/11/15 05:10:22;;;;;;;2.45;0.50;;;12.50;99.90;;;;;;5084460;28;20401;-90
2022/11/15 05:12:47;;;;;;;2.92;0.52;;;12.50;99.90;;;;;;5111725;28;20625;-89
2022/11/15 05:15:13;;;;;;;3.25;0.60;;;12.50;99.90;;;;;;5085718;28;20016;-89
2022/11/15 05:17:39;;;;;;;1.63;0.60;;;12.50;99.90;;;;;;5099986;28;20021;-88
2022/11/15 05:20:05;;;;;;;2.45;0.68;;;12.40;99.90;;;;;;5100412;28;20073;-88
2022/11/15 05:22:30;;;;;;;1.35;0.65;;;12.50;99.90;;;;;;5087849;28;20496;-88
2022/11/15 05:24:56;;;;;;;2.70;0.77;;;12.40;99.90;;;;;;5099490;28;20031;-88
2022/11/15 05:27:22;;;;;;;0.95;0.50;;;12.50;99.90;;;;;;5107556;28;20020;-88
2022/11/15 05:29:47;;;;;;;2.90;0.68;;;12.40;99.90;;;;;;5084492;28;20119;-88
2022/11/15 05:32:13;;;;;;;3.05;0.70;;;12.40;99.90;;;;;;5099549;28;20476;-91
2022/11/15 05:34:39;;;;;;;5.95;0.95;;;12.40;99.90;;;;;;5099931;28;20476;-91
2022/11/15 05:37:05;;;;;;;2.92;0.70;;;12.40;99.90;;;;;;5091554;28;20458;-90
2022/11/15 05:39:31;;;;;;;1.92;0.55;;;12.40;99.90;;;;;;5086234;28;20031;-91
2022/11/15 05:42:10;;;;;;;2.50;0.68;;;12.40;99.90;;;;;;5091304;28;20027;-92
2022/11/15 05:44:37;;;;;;;3.55;0.80;;;12.40;99.90;;;;;;5095256;28;20039;-90
2022/11/15 05:47:05;;;;;;;2.15;0.57;;;12.40;99.90;;;;;;5083356;28;20024;-85
2022/11/15 05:49:35;;;;;;;2.35;0.90;;;12.40;99.90;;;;;;5093899;28;20062;-86
2022/11/15 05:52:04;;;;;;;2.97;0.70;;;12.40;99.90;;;;;;5085455;28;20028;-90
2022/11/15 05:54:31;;;;;;;4.97;0.65;;;12.40;99.90;;;;;;5096782;28;20019;-90
2022/11/15 05:56:57;;;;;;;2.42;1.00;;;12.40;99.90;;;;;;5085749;28;20021;-90
2022/11/15 05:59:23;;;;;;;3.78;0.55;;;12.40;99.90;;;;;;5081602;28;20043;-89
2022/11/15 06:01:49;;;;;;;1.15;0.52;;;12.50;99.90;;;;;;5081097;28;20031;-89
2022/11/15 06:04:14;;;;;;;3.45;0.70;;;12.40;99.90;;;;;;5081220;28;20047;-89
2022/11/15 06:06:40;;;;;;;3.13;0.85;;;12.40;99.90;;;;;;5083084;28;20027;-88
2022/11/15 06:09:06;;;;;;;2.67;0.65;;;12.50;99.90;;;;;;5116903;28;20116;-89
2022/11/15 06:11:31;;;;;;;2.67;0.68;;;12.50;99.90;;;;;;5095666;28;20035;-89
2022/11/15 06:13:57;;;;;;;2.17;0.80;;;12.50;99.90;;;;;;5088485;28;20483;-88
2022/11/15 06:16:22;;;;;;;3.85;0.82;;;12.50;99.90;;;;;;5088747;28;20077;-86
2022/11/15 06:18:48;;;;;;;2.40;0.85;;;12.50;99.90;;;;;;5083224;28;20028;-87
2022/11/15 06:21:14;;;;;;;2.65;0.70;;;12.40;99.90;;;;;;5099762;28;20016;-84
2022/11/15 06:23:39;;;;;;;4.47;1.02;;;12.50;99.90;;;;;;5104354;28;20028;-84
2022/11/15 06:26:05;;;;;;;2.05;0.70;;;12.40;99.90;;;;;;5112755;28;20032;-93
2022/11/15 06:28:32;;;;;;;2.97;0.93;;;12.40;99.90;;;;;;5094363;28;20045;-91
2022/11/15 06:31:10;;;;;;;2.70;0.70;;;12.40;99.90;;;;;;5083600;28;20020;-90
2022/11/15 06:33:36;;;;;;;3.80;0.98;;;12.40;99.90;;;;;;5093857;28;20027;-89
2022/11/15 06:36:04;;;;;;;3.25;0.98;;;12.40;99.90;;;;;;5084445;28;20062;-89
2022/11/15 06:38:30;;;;;;;2.17;0.63;;;12.40;99.90;;;;;;5096067;28;20035;-90
2022/11/15 06:41:04;;;;;;;3.42;1.00;;;12.40;99.90;;;;;;5086061;28;20020;-90
2022/11/15 06:43:30;;;;;;;2.17;0.80;;;12.40;99.90;;;;;;5080860;28;20020;-86
2022/11/15 06:45:57;;;;;;;2.30;0.93;;;12.50;99.90;;;;;;5097144;28;20035;-87
2022/11/15 06:48:22;;;;;;;2.78;0.85;;;12.40;99.90;;;;;;5082609;28;20071;-89
2022/11/15 06:50:52;;;;;;;4.00;0.80;;;12.50;99.90;;;;;;5107376;28;20046;-89
2022/11/15 06:53:18;;;;;;;2.00;0.80;;;12.50;99.90;;;;;;5097029;28;20024;-90
2022/11/15 06:55:44;;;;;;;3.97;0.98;;;12.50;99.90;;;;;;5108961;28;20019;-90
2022/11/15 06:58:09;;;;;;;2.38;0.80;;;12.50;99.90;;;;;;5072256;28;20489;-90
2022/11/15 07:00:35;;;;;;;4.45;0.85;;;12.50;99.90;;;;;;5091035;28;20024;-91
2022/11/15 07:03:01;;;;;;;2.38;0.80;;;12.50;99.90;;;;;;5083271;28;20038;-90
2022/11/15 07:05:27;;;;;;;2.30;0.70;;;12.50;99.90;;;;;;5080554;28;20110;-90
2022/11/15 07:07:54;;;;;;;2.65;1.08;;;12.60;99.90;;;;;;5104277;28;20038;-90
2022/11/15 07:10:24;;;;;;;1.70;0.70;;;12.60;99.90;;;;;;5111044;28;20087;-90
2022/11/15 07:12:50;;;;;;;3.88;1.10;;;12.60;99.90;;;;;;5107427;28;20042;-89
2022/11/15 07:15:22;;;;;;;2.60;0.73;;;12.60;99.90;;;;;;5105786;28;20381;-89
2022/11/15 07:17:48;;;;;;;1.50;0.70;;;12.60;99.90;;;;;;5081457;28;20026;-91
2022/11/15 07:20:15;;;;;;;0.90;0.75;;;12.70;99.90;;;;;;5101661;28;20047;-92
2022/11/15 07:22:41;;;;;;;2.70;0.70;;;12.70;99.90;;;;;;5083365;28;20020;-90
2022/11/15 07:25:07;;;;;;;4.25;1.10;;;12.70;99.90;;;;;;5089241;28;20060;-89
2022/11/15 07:27:33;;;;;;;1.65;0.73;;;12.70;99.90;;;;;;5076707;28;20020;-90
2022/11/15 07:29:58;;;;;;;1.48;0.63;;;12.70;99.90;;;;;;5099312;28;20103;-91
2022/11/15 07:32:24;;;;;;;2.13;0.80;;;12.70;99.90;;;;;;5092920;28;20115;-89
2022/11/15 07:34:50;;;;;;;1.52;0.60;;;12.70;99.90;;;;;;5094498;28;20419;-88
2022/11/15 07:37:16;;;;;;;1.73;0.68;;;12.70;99.90;;;;;;5080445;28;20047;-90
2022/11/15 07:39:42;;;;;;;2.42;1.02;;;12.70;99.90;;;;;;5077262;28;20032;-88
2022/11/15 07:44:52;;;;;;;1.83;0.60;;;12.70;99.90;;;;;;5102712;28;20046;-86
2022/11/15 07:47:19;;;;;;;1.45;0.60;;;12.70;99.90;;;;;;5099616;28;20024;-87
2022/11/15 07:49:45;;;;;;;1.02;0.60;;;12.70;99.90;;;;;;5087579;28;20500;-88
2022/11/15 07:52:12;;;;;;;1.65;0.70;;;12.70;99.90;;;;;;5085443;28;20059;-89
2022/11/15 07:54:38;;;;;;;2.53;0.93;;;12.70;99.90;;;;;;5091366;28;20020;-88
2022/11/15 07:57:04;;;;;;;1.95;0.95;;;12.70;99.90;;;;;;5110924;28;20026;-89
2022/11/15 07:59:30;;;;;;;3.70;1.08;;;12.70;99.90;;;;;;5078790;28;20016;-88
2022/11/15 08:01:55;;;;;;;1.17;0.80;;;12.70;99.90;;;;;;5077097;28;20739;-86
2022/11/15 08:04:21;;;;;;;1.50;0.70;;;12.70;99.90;;;;;;5089184;28;20025;-91
2022/11/15 08:06:47;;;;;;;1.90;1.05;;;12.70;99.90;;;;;;5088126;28;20383;-91
2022/11/15 08:09:13;;;;;;;2.00;0.85;;;12.70;99.90;;;;;;5062866;28;20029;-91
2022/11/15 08:11:38;;;;;;;2.28;0.80;;;12.70;99.90;;;;;;5092557;28;20027;-90
2022/11/15 08:14:04;;;;;;;2.40;1.00;;;12.70;99.90;;;;;;5079090;28;20047;-86
2022/11/15 08:16:30;;;;;;;4.20;0.90;;;12.70;99.90;;;;;;5081155;28;20016;-85
2022/11/15 08:18:55;;;;;;;2.03;0.90;;;12.70;99.90;;;;;;5082452;28;20059;-85
2022/11/15 08:21:22;;;;;;;2.85;0.80;;;12.70;99.90;;;;;;5082676;28;20028;-85
2022/11/15 08:23:47;;;;;;;2.10;0.70;;;12.70;99.90;;;;;;5083016;28;20038;-86
2022/11/15 08:26:14;;;;;;;1.35;0.70;;;12.70;99.90;;;;;;5099489;28;20032;-85
2022/11/15 08:28:40;;;;;;;2.88;1.13;;;12.70;99.90;;;;;;5070431;28;20020;-87
2022/11/15 08:31:05;;;;;;;3.45;0.75;;;12.80;99.90;;;;;;5084288;28;20031;-87
2022/11/15 08:33:32;;;;;;;1.17;0.68;;;12.80;99.90;;;;;;5095108;28;20027;-89
2022/11/15 08:36:01;;;;;;;2.88;0.77;;;12.80;99.90;;;;;;5098451;28;20460;-89
2022/11/15 08:38:28;;;;;;;1.02;0.50;;;12.80;99.90;;;;;;5094795;28;20024;-89
2022/11/15 08:41:02;;;;;;;1.20;0.55;;;12.80;99.90;;;;;;5096371;28;20023;-89
2022/11/15 08:43:27;;;;;;;2.30;0.70;;;12.90;99.90;;;;;;5082789;28;20100;-90
2022/11/15 08:45:56;;;;;;;1.95;0.60;;;12.90;99.90;;;;;;5082276;28;20032;-90
2022/11/15 08:48:22;;;;;;;2.15;0.55;;;12.90;99.90;;;;;;5092892;28;20071;-88
2022/11/15 08:50:48;;;;;;;1.00;0.60;;;13.00;99.90;;;;;;5085113;28;20089;-88
2022/11/15 08:53:14;;;;;;;0.80;0.40;;;13.00;99.90;;;;;;5092757;28;20028;-88
2022/11/15 08:55:40;;;;;;;0.95;0.50;;;13.00;99.90;;;;;;5084511;28;20032;-88
2022/11/15 08:58:06;;;;;;;1.83;0.57;;;13.00;99.90;;;;;;5081865;28;20027;-87
2022/11/15 09:00:33;;;;;;;2.65;0.50;;;13.00;99.90;;;;;;5086020;28;20043;-87
2022/11/15 09:02:59;;;;;;;0.50;0.30;;;13.10;99.90;;;;;;5102606;28;20027;-89
2022/11/15 09:05:25;;;;;;;0.45;0.30;;;13.10;99.90;;;;;;5102690;28;20104;-86
2022/11/15 09:07:54;;;;;;;1.23;0.50;;;13.10;99.90;;;;;;5100352;28;20020;-71
2022/11/15 09:10:21;;;;;;;0.55;0.30;;;13.20;99.90;;;;;;5099704;28;20032;-72
2022/11/15 09:12:48;;;;;;;1.08;0.40;;;13.20;99.90;;;;;;5099958;28;20047;-79
2022/11/15 09:15:15;;;;;;;0.93;0.43;;;13.30;99.90;;;;;;5100694;28;20024;-73
2022/11/15 09:17:41;;;;;;;2.17;0.70;;;13.30;99.90;;;;;;5097791;28;20450;-69
2022/11/15 09:20:07;;;;;;;0.85;0.50;;;13.30;99.90;;;;;;5080542;28;20119;-71
2022/11/15 09:22:34;;;;;;;2.30;0.43;;;13.30;99.90;;;;;;5080929;28;20024;-70
2022/11/15 09:25:00;;;;;;;0.80;0.55;;;13.40;99.90;;;;;;5099084;28;20107;-70
2022/11/15 09:27:31;;;;;;;1.23;0.60;;;13.30;99.90;;;;;;5098676;28;20020;-70
2022/11/15 09:29:57;;;;;;;1.75;0.60;;;13.40;99.90;;;;;;5098676;28;20106;-69
2022/11/15 09:32:23;;;;;;;0.68;0.47;;;13.40;99.90;;;;;;5111562;28;20059;-69
2022/11/15 09:34:49;;;;;;;1.25;0.50;;;13.40;99.90;;;;;;5103340;28;20512;-69
2022/11/15 09:37:15;;;;;;;0.95;0.60;;;13.50;99.90;;;;;;5098750;28;20493;-70
2022/11/15 09:39:41;;;;;;;2.40;0.75;;;13.50;99.90;;;;;;5093803;28;20023;-69
2022/11/15 09:42:30;;;;;;;3.97;0.77;;;13.50;99.90;;;;;;5088678;28;20032;-70
2022/11/15 09:45:14;;;;;;;2.17;0.70;;;13.50;99.90;;;;;;5097136;28;20092;-70
2022/11/15 09:47:40;;;;;;;1.10;0.60;;;13.50;99.90;;;;;;5100957;28;20035;-70
2022/11/15 09:50:12;;;;;;;2.03;0.50;;;13.60;99.90;;;;;;5100900;28;20055;-70
2022/11/15 09:52:42;;;;;;;1.63;0.60;;;13.60;99.90;;;;;;5113903;28;20015;-69
2022/11/15 09:55:13;;;;;;;2.25;0.65;;;13.60;99.90;;;;;;5118466;28;20024;-71
2022/11/15 09:57:49;;;;;;;1.70;0.60;;;13.60;99.90;;;;;;5100344;28;20019;-71
2022/11/15 10:00:23;;;;;;;2.65;0.80;;;13.50;99.90;;;;;;5118737;28;20541;-69
2022/11/15 10:03:13;;;;;;;2.50;0.65;;;13.50;99.90;;;;;;5100570;28;20032;-69
2022/11/15 10:05:47;;;;;;;0.68;0.47;;;13.50;99.90;;;;;;5115374;28;20023;-68
2022/11/15 10:08:24;;;;;;;3.17;0.55;;;13.50;99.90;;;;;;5079451;28;20099;-69
2022/11/15 10:10:58;;;;;;;1.60;0.82;;;13.50;99.90;;;;;;5098479;28;20034;-68
2022/11/15 10:13:24;;;;;;;;;;;13.50;99.90;;;;;;5097587;28;20118;-69
2022/11/15 10:15:51;;;;;;;2.05;0.75;;;13.50;99.90;;;;;;5097543;28;19904;-68
2022/11/15 10:18:44;;;;;;;1.33;0.70;;;13.50;99.90;;;;;;5098011;28;20020;-68
2022/11/15 10:21:23;;;;;;;0.80;0.50;;;13.50;99.90;;;;;;5098474;28;20016;-68
2022/11/15 10:23:50;;;;;;;1.52;0.50;;;13.50;99.90;;;;;;5093880;28;20017;-68
2022/11/15 10:26:17;;;;;;;1.70;0.77;;;13.50;99.90;;;;;;5103852;28;20442;-68
2022/11/15 10:28:43;;;;;;;1.33;0.70;;;13.60;99.90;;;;;;5097531;28;20062;-68
2022/11/15 10:31:27;;;;;;;1.02;0.63;;;13.60;99.90;;;;;;5097786;28;20032;-68
2022/11/15 10:34:12;;;;;;;2.22;0.70;;;13.60;99.90;;;;;;5098248;28;20020;-68
2022/11/15 10:36:37;;;;;;;2.92;0.70;;;13.60;99.90;;;;;;5098280;28;20543;-68
2022/11/15 10:39:03;;;;;;;1.10;0.52;;;13.60;99.90;;;;;;5092150;28;20117;-68
2022/11/15 10:41:29;;;;;;;2.30;1.00;;;13.70;99.90;;;;;;5098392;28;20031;-68
2022/11/15 10:44:07;;;;;;;4.07;1.00;;;13.70;99.90;;;;;;5097694;28;20021;-68
2022/11/15 10:46:39;;;;;;;2.35;0.98;;;13.70;99.90;;;;;;5097910;28;20484;-68
2022/11/15 10:49:21;;;;;;;3.70;0.88;;;13.80;99.90;;;;;;5097802;28;20051;-68
2022/11/15 10:51:54;;;;;;;3.85;1.10;;;13.80;99.90;;;;;;5097682;28;20036;-68
2022/11/15 10:54:41;;;;;;;3.92;1.02;;;13.90;99.90;;;;;;5117454;28;20026;-68
2022/11/15 10:57:14;;;;;;;4.40;0.90;;;14.00;99.90;;;;;;5086710;28;20035;-68
2022/11/15 10:59:45;;;;;;;2.80;0.73;;;14.00;99.90;;;;;;5097621;28;20020;-67
2022/11/15 11:02:30;;;;;;;6.60;0.85;;;14.10;99.90;;;;;;5097460;28;20078;-68
2022/11/15 11:04:56;;;;;;;3.28;0.90;;;14.20;99.90;;;;;;5097450;28;20020;-67
2022/11/15 11:07:25;;;;;;;3.42;1.00;;;14.30;99.90;;;;;;5097519;28;20031;-68
2022/11/15 11:10:18;;;;;;;2.97;0.70;;;14.30;99.90;;;;;;5097374;28;20016;-68
2022/11/15 11:12:44;;;;;;;2.95;0.90;;;14.40;99.90;;;;;;5084793;28;20036;-68
2022/11/15 11:15:12;;;;;;;2.70;0.85;;;14.40;99.90;;;;;;5097247;28;20444;-68
2022/11/15 11:17:48;;;;;;;2.17;0.90;;;14.50;99.90;;;;;;5097041;28;20012;-68
2022/11/15 11:20:36;;;;;;;4.82;0.80;;;14.50;99.90;;;;;;5105952;28;20065;-68
2022/11/15 11:23:26;;;;;;;2.20;0.63;;;14.60;99.90;;;;;;5106940;28;20393;-68
2022/11/15 11:26:29;;;;;;;4.22;0.88;;;14.60;99.90;;;;;;5116551;28;20029;-68
2022/11/15 11:29:25;;;;;;;3.50;0.70;;;14.70;99.90;;;;;;5097132;28;20424;-68
2022/11/15 11:31:57;;;;;;;3.22;0.98;;;14.80;99.90;;;;;;5096546;28;20127;-67
2022/11/15 11:34:41;;;;;;;4.35;1.30;;;15.00;99.90;;;;;;5079011;28;20488;-68
2022/11/15 11:37:17;;;;;;;5.80;1.17;;;15.10;99.90;;;;;;5108958;28;20388;-68
2022/11/15 11:39:55;;;;;;;4.07;1.15;;;15.10;99.90;;;;;;5100405;28;20020;-68
2022/11/15 11:42:36;;;;;;;4.45;0.85;;;15.20;99.90;;;;;;5096892;28;20028;-68
2022/11/15 11:45:13;;;;;;;4.03;0.85;;;15.20;99.90;;;;;;5097074;28;20024;-68
2022/11/15 11:47:46;;;;;;;6.35;1.15;;;15.30;99.90;;;;;;5095190;28;20665;-67
2022/11/15 11:50:26;;;;;;;3.80;0.77;;;15.40;99.90;;;;;;5095907;28;20063;-68
2022/11/15 11:53:10;;;;;;;3.95;0.95;;;15.40;99.90;;;;;;5107648;28;20042;-68
2022/11/15 11:55:52;;;;;;;2.40;0.90;;;15.50;99.90;;;;;;5114208;28;20049;-68
2022/11/15 11:58:29;;;;;;;5.68;1.08;;;15.50;99.90;;;;;;5100852;28;20061;-67
2022/11/15 12:01:22;;;;;;;3.42;0.93;;;15.50;99.90;;;;;;5101674;28;20075;-68
2022/11/15 12:03:51;;;;;;;5.10;1.00;;;15.30;99.90;;;;;;5116352;28;20031;-67
2022/11/15 12:06:35;;;;;;;8.68;1.60;;;15.20;99.90;;;;;;5111357;28;20076;-68
2022/11/15 12:09:14;;;;;;;4.88;0.90;;;15.00;99.90;;;;;;5101653;28;20027;-68
2022/11/15 12:11:45;;;;;;;6.72;1.10;;;14.80;99.90;;;;;;5101157;28;20028;-68
2022/11/15 12:14:36;;;;;;;4.10;1.08;;;14.70;99.90;;;;;;5081838;28;20024;-68
2022/11/15 12:17:02;;;;;;;9.45;1.27;;;14.70;99.90;;;;;;5098881;28;20103;-68
2022/11/15 12:19:29;;;;;;;8.75;1.30;;;14.60;99.90;;;;;;5099366;28;20024;-68
2022/11/15 12:22:10;;;;;;;6.15;1.17;;;14.60;99.90;;;;;;5097631;28;20020;-68
2022/11/15 12:24:46;;;;;;;8.00;1.55;;;14.50;99.90;;;;;;5098857;28;20106;-67
2022/11/15 12:27:14;;;;;;;9.43;1.23;;;14.50;99.90;;;;;;5098987;28;20024;-68
2022/11/15 12:29:48;;;;;;;5.38;1.10;;;14.50;99.90;;;;;;5098938;28;20030;-67
2022/11/15 12:32:23;;;;;;;5.22;1.05;;;14.50;99.90;;;;;;5110513;28;20020;-68
2022/11/15 12:34:49;;;;;;;3.22;0.88;;;14.60;99.90;;;;;;5119633;28;20027;-68
2022/11/15 12:37:45;;;;;;;5.35;0.95;;;14.60;99.90;;;;;;5119562;28;20019;-68
2022/11/15 12:40:28;;;;;;;4.82;1.08;;;14.60;99.90;;;;;;5097963;28;20077;-68
2022/11/15 12:43:13;;;;;;;4.65;1.08;;;14.60;99.90;;;;;;5118974;28;20023;-67
2022/11/15 12:45:41;;;;;;;4.03;0.77;;;14.60;99.90;;;;;;5119141;28;20042;-68
2022/11/15 12:48:16;;;;;;;6.60;1.20;;;14.70;99.90;;;;;;5079489;28;1129437;-68
2022/11/15 12:50:51;;;;;;;6.90;1.10;;;14.70;99.90;;;;;;5108386;28;20510;-68
2022/11/15 12:53:22;;;;;;;4.20;0.90;;;14.70;99.90;;;;;;5113901;28;20031;-68
2022/11/15 12:56:03;;;;;;;3.22;0.73;;;14.70;99.90;;;;;;5100037;28;20024;-68
2022/11/15 12:58:51;;;;;;;6.05;0.88;;;14.70;99.90;;;;;;5081565;28;20028;-68
2022/11/15 13:01:32;;;;;;;4.85;0.90;;;14.80;99.90;;;;;;5108761;28;20156;-68
2022/11/15 13:04:19;;;;;;;5.22;1.08;;;14.80;99.90;;;;;;5112251;28;20020;-70
2022/11/15 13:06:56;;;;;;;4.30;0.90;;;14.80;99.90;;;;;;5113659;28;20019;-67
2022/11/15 13:09:45;;;;;;;4.72;1.15;;;14.90;99.90;;;;;;5109472;28;20062;-66
2022/11/15 13:12:26;;;;;;;4.28;0.80;;;14.90;99.90;;;;;;5080578;28;20067;-67
2022/11/15 13:14:59;;;;;;;9.52;1.30;;;14.90;99.90;;;;;;5097891;28;20032;-66
2022/11/15 13:17:24;;;;;;;3.17;1.05;;;14.90;99.90;;;;;;5099109;28;20025;-66
2022/11/15 13:19:58;;;;;;;6.15;1.20;;;14.90;99.90;;;;;;5099023;28;20032;-67
2022/11/15 13:25:18;;;;;;;4.88;1.00;;;15.00;99.90;;;;;;5099028;28;20082;-67
2022/11/15 13:27:48;;;;;;;5.97;0.80;;;15.00;99.90;;;;;;5098471;28;20020;-67
2022/11/15 13:30:31;;;;;;;4.10;0.68;;;15.00;99.90;;;;;;5098964;28;20048;-67
2022/11/15 13:33:01;;;;;;;3.33;0.90;;;15.10;99.90;;;;;;5108568;28;20020;-67
2022/11/15 13:35:31;;;;;;;3.45;0.98;;;15.10;99.90;;;;;;5114566;28;20515;-67
2022/11/15 13:38:04;;;;;;;3.47;0.68;;;15.10;99.90;;;;;;5078473;28;20031;-67
2022/11/15 13:40:35;;;;;;;5.90;0.85;;;15.10;99.90;;;;;;5104229;28;20028;-67
2022/11/15 13:43:21;;;;;;;7.15;0.85;;;15.10;99.90;;;;;;5118919;28;20035;-67
2022/11/15 13:46:18;;;;;;;3.55;0.70;;;15.10;99.90;;;;;;5118845;28;20032;-68